KXNA/XNA METAR and TAF weather

Enter ICAO airport designator
Station Type Date Time Source
KXNA METAR 2019/04/22 17:53 UTC NOAA

KXNA 221753Z 19015KT 10SM CLR 24/14 A3005 RMK AO2 SLP163 T02390139 10239 20156 55003


Station Type Date Time Source
KXNA Decoded METAR 2019/04/22 17:53 UTC NOAA

NORTHWEST ARKANSAS REGIONAL, AR, United States (KXNA) 36-17N 94-18W
Apr 22, 2019 - 01:53 PM EDT / 2019.04.22 1753 UTC
Wind: from the S (190 degrees) at 17 MPH (15 KT):0
Visibility: 10 mile(s):0
Sky conditions: clear
Temperature: 75.0 F (23.9 C)
Dew Point: 57.0 F (13.9 C)
Relative Humidity: 53%
Pressure (altimeter): 30.05 in. Hg (1017 hPa)
Pressure tendency: 0.01 inches (0.3 hPa) lower than three hours ago
ob: KXNA 221753Z 19015KT 10SM CLR 24/14 A3005 RMK AO2 SLP163 T02390139 10239 20156 55003
cycle: 18

Station Type Date Time Source
KXNA TAF 2019/04/22 18:22 UTC NOAA

TAF KXNA 221720Z 2218/2318 21012KT P6SM SKC
FM222300 22006KT P6SM BKN035
FM230900 22004KT P6SM BKN025 PROB30 2312/2318 4SM -TSRA BKN025CB

Example: see airport list